createdAt,value
2022-11-14T00:01:11.711Z,17.07
2022-11-14T00:03:38.782Z,18.77
2022-11-14T00:06:07.335Z,19.83
2022-11-14T00:08:35.100Z,18.70
2022-11-14T00:11:02.380Z,17.80
2022-11-14T00:13:29.343Z,15.30
2022-11-14T00:15:56.280Z,13.97
2022-11-14T00:18:23.905Z,14.23
2022-11-14T00:20:52.742Z,13.00
2022-11-14T00:23:21.256Z,14.47
2022-11-14T00:25:48.417Z,17.37
2022-11-14T00:28:15.470Z,15.93
2022-11-14T00:30:42.419Z,15.10
2022-11-14T00:33:09.317Z,17.00
2022-11-14T00:35:36.241Z,16.47
2022-11-14T00:38:03.110Z,15.93
2022-11-14T00:40:29.974Z,17.70
2022-11-14T00:42:56.865Z,17.40
2022-11-14T00:45:24.549Z,17.37
2022-11-14T00:47:51.501Z,16.23
2022-11-14T00:50:18.496Z,16.53
2022-11-14T00:52:45.369Z,16.77
2022-11-14T00:55:12.265Z,19.70
2022-11-14T00:57:39.164Z,21.63
2022-11-14T01:00:09.126Z,21.67
2022-11-14T01:02:36.199Z,24.10
2022-11-14T01:05:03.164Z,23.37
2022-11-14T01:07:30.067Z,37.10
2022-11-14T01:09:57.038Z,28.67
2022-11-14T01:12:24.116Z,25.57
2022-11-14T01:14:50.991Z,24.13
2022-11-14T01:17:17.906Z,25.73
2022-11-14T01:19:44.804Z,25.80
2022-11-14T01:22:11.720Z,25.57
2022-11-14T01:24:38.662Z,22.83
2022-11-14T01:27:05.561Z,24.97
2022-11-14T01:29:32.412Z,23.73
2022-11-14T01:31:59.310Z,24.03
2022-11-14T01:34:26.657Z,22.67
2022-11-14T01:36:53.611Z,23.13
2022-11-14T01:39:20.505Z,23.97
2022-11-14T01:41:47.486Z,23.13
2022-11-14T01:44:40.481Z,24.83
2022-11-14T01:47:07.400Z,25.60
2022-11-14T01:49:42.087Z,22.67
2022-11-14T01:52:22.694Z,23.77
2022-11-14T01:54:56.071Z,21.60
2022-11-14T01:57:33.703Z,19.97
2022-11-14T02:00:08.105Z,18.53
2022-11-14T02:02:35.775Z,20.37
2022-11-14T02:05:13.354Z,18.97
2022-11-14T02:07:41.646Z,16.57
2022-11-14T02:10:17.541Z,18.30
2022-11-14T02:12:45.625Z,16.57
2022-11-14T02:15:13.561Z,17.10
2022-11-14T02:17:42.671Z,17.73
2022-11-14T02:20:12.689Z,16.80
2022-11-14T02:22:42.066Z,16.70
2022-11-14T02:25:10.976Z,15.73
2022-11-14T02:27:39.550Z,16.57
2022-11-14T02:30:17.740Z,17.13
2022-11-14T02:33:09.356Z,17.90
2022-11-14T02:35:31.734Z,16.90
2022-11-14T02:37:58.644Z,17.00
2022-11-14T02:40:25.574Z,19.57
2022-11-14T02:42:52.466Z,18.00
2022-11-14T02:45:20.867Z,17.47
2022-11-14T02:47:47.909Z,18.13
2022-11-14T02:50:15.234Z,17.70
2022-11-14T02:52:42.135Z,16.83
2022-11-14T02:55:10.076Z,16.83
2022-11-14T02:57:37.087Z,18.13
2022-11-14T03:00:09.964Z,17.43
2022-11-14T03:02:40.398Z,17.37
2022-11-14T03:05:07.920Z,19.17
2022-11-14T03:07:34.880Z,17.73
2022-11-14T03:10:02.204Z,18.47
2022-11-14T03:12:29.147Z,19.07
2022-11-14T03:14:56.070Z,18.33
2022-11-14T03:17:24.747Z,18.63
2022-11-14T03:19:51.692Z,18.00
2022-11-14T03:22:18.590Z,18.40
2022-11-14T03:24:45.491Z,18.50
2022-11-14T03:27:12.367Z,19.30
2022-11-14T03:29:39.254Z,18.57
2022-11-14T03:32:06.177Z,20.17
2022-11-14T03:34:33.601Z,20.27
2022-11-14T03:37:00.616Z,20.97
2022-11-14T03:39:28.233Z,21.53
2022-11-14T03:41:55.111Z,21.93
2022-11-14T03:44:22.336Z,22.17
2022-11-14T03:46:49.269Z,20.23
2022-11-14T03:49:16.202Z,19.60
2022-11-14T03:51:43.123Z,25.10
2022-11-14T03:54:10.053Z,19.53
2022-11-14T03:56:36.989Z,18.63
2022-11-14T03:59:03.974Z,19.03
2022-11-14T04:01:30.944Z,18.23
2022-11-14T04:03:57.924Z,17.53
2022-11-14T04:06:24.815Z,16.13
2022-11-14T04:08:56.663Z,19.07
2022-11-14T04:11:23.631Z,16.23
2022-11-14T04:13:50.525Z,15.43
2022-11-14T04:16:17.437Z,17.03
2022-11-14T04:18:44.351Z,15.87
2022-11-14T04:21:11.233Z,17.17
2022-11-14T04:23:38.141Z,16.43
2022-11-14T04:26:05.210Z,16.77
2022-11-14T04:28:32.408Z,16.27
2022-11-14T04:31:00.406Z,16.40
2022-11-14T04:33:27.653Z,15.80
2022-11-14T04:35:54.555Z,17.27
2022-11-14T04:38:21.467Z,17.17
2022-11-14T04:40:54.368Z,15.70
2022-11-14T04:43:21.565Z,15.20
2022-11-14T04:45:48.725Z,16.23
2022-11-14T04:48:15.665Z,16.97
2022-11-14T04:50:42.761Z,17.67
2022-11-14T04:53:09.681Z,18.13
2022-11-14T04:55:36.633Z,16.90
2022-11-14T04:58:03.726Z,18.60
2022-11-14T05:00:30.643Z,16.57
2022-11-14T05:03:00.170Z,16.87
2022-11-14T05:05:27.286Z,17.63
2022-11-14T05:07:55.217Z,19.40
2022-11-14T05:10:22.208Z,17.23
2022-11-14T05:12:49.151Z,16.70
2022-11-14T05:15:16.111Z,19.03
2022-11-14T05:17:42.978Z,16.70
2022-11-14T05:20:10.852Z,17.00
2022-11-14T05:22:37.839Z,16.83
2022-11-14T05:25:06.494Z,16.43
2022-11-14T05:27:33.494Z,16.53
2022-11-14T05:30:00.540Z,16.57
2022-11-14T05:32:27.407Z,15.90
2022-11-14T05:34:54.289Z,16.07
2022-11-14T05:37:21.223Z,17.03
2022-11-14T05:39:48.126Z,16.97
2022-11-14T05:42:15.146Z,17.23
2022-11-14T05:44:42.044Z,17.67
2022-11-14T05:47:08.955Z,16.47
2022-11-14T05:49:35.840Z,17.20
2022-11-14T05:52:02.756Z,16.30
2022-11-14T05:54:29.660Z,16.57
2022-11-14T05:56:56.548Z,17.07
2022-11-14T05:59:23.496Z,16.40
2022-11-14T06:01:50.383Z,15.47
2022-11-14T06:04:17.259Z,14.43
2022-11-14T06:06:44.220Z,14.77
2022-11-14T06:09:11.510Z,16.53
2022-11-14T06:11:38.573Z,16.57
2022-11-14T06:14:10.455Z,16.47
2022-11-14T06:16:37.958Z,17.03
2022-11-14T06:19:05.410Z,15.53
2022-11-14T06:21:32.306Z,14.40
2022-11-14T06:23:59.245Z,14.87
2022-11-14T06:26:30.396Z,14.50
2022-11-14T06:28:58.886Z,14.67
2022-11-14T06:31:26.532Z,14.30
2022-11-14T06:33:53.709Z,15.13
2022-11-14T06:36:20.899Z,14.80
2022-11-14T06:38:47.793Z,15.67
2022-11-14T06:41:20.934Z,17.37
2022-11-14T06:43:51.204Z,15.50
2022-11-14T06:46:20.695Z,14.80
2022-11-14T06:48:49.514Z,15.40
2022-11-14T06:51:17.999Z,16.20
2022-11-14T06:53:45.734Z,16.77
2022-11-14T06:56:16.568Z,18.40
2022-11-14T06:58:47.979Z,17.53
2022-11-14T07:01:21.858Z,19.07
2022-11-14T07:03:49.872Z,20.60
2022-11-14T07:06:21.671Z,20.37
2022-11-14T07:08:48.860Z,17.00
2022-11-14T07:11:23.017Z,15.80
2022-11-14T07:14:01.329Z,15.03
2022-11-14T07:16:37.475Z,15.17
2022-11-14T07:19:09.097Z,15.13
2022-11-14T07:21:36.678Z,17.67
2022-11-14T07:24:03.956Z,16.10
2022-11-14T07:26:30.905Z,18.40
2022-11-14T07:29:02.140Z,17.27
2022-11-14T07:31:29.839Z,18.13
2022-11-14T07:33:56.802Z,16.60
2022-11-14T07:36:24.279Z,17.60
2022-11-14T07:38:51.312Z,19.43
2022-11-14T07:41:18.418Z,19.33
2022-11-14T07:43:45.751Z,21.00
2022-11-14T07:46:15.682Z,21.07
2022-11-14T07:48:43.766Z,20.40
2022-11-14T07:51:17.109Z,19.23
2022-11-14T07:53:44.512Z,19.10
2022-11-14T07:56:11.690Z,15.90
2022-11-14T07:58:40.661Z,18.30
2022-11-14T08:01:10.723Z,16.17
2022-11-14T08:03:42.261Z,15.23
2022-11-14T08:06:15.104Z,13.40
2022-11-14T08:08:42.178Z,13.80
2022-11-14T08:11:09.622Z,14.40
2022-11-14T08:13:36.519Z,13.43
2022-11-14T08:16:12.784Z,12.73
2022-11-14T08:18:41.405Z,13.37
2022-11-14T08:21:08.555Z,12.63
2022-11-14T08:23:35.519Z,11.97
2022-11-14T08:26:02.462Z,12.33
2022-11-14T08:28:29.941Z,12.30
2022-11-14T08:31:04.726Z,12.67
2022-11-14T08:33:32.355Z,12.67
2022-11-14T08:36:03.334Z,11.97
2022-11-14T08:38:32.632Z,12.60
2022-11-14T08:41:04.512Z,12.97
2022-11-14T08:43:32.550Z,12.23
2022-11-14T08:46:05.153Z,12.63
2022-11-14T08:48:33.255Z,12.27
2022-11-14T08:51:07.469Z,12.33
2022-11-14T08:53:35.286Z,12.67
2022-11-14T08:56:02.923Z,14.83
2022-11-14T08:58:32.342Z,15.00
2022-11-14T09:01:05.254Z,14.67
2022-11-14T09:03:33.030Z,15.47
2022-11-14T09:06:00.737Z,15.27
2022-11-14T09:08:29.796Z,15.13
2022-11-14T09:11:05.133Z,15.23
2022-11-14T09:13:34.917Z,15.10
2022-11-14T09:16:02.423Z,16.13
2022-11-14T09:18:31.183Z,16.03
2022-11-14T09:21:07.818Z,15.93
2022-11-14T09:23:35.294Z,16.17
2022-11-14T09:26:08.199Z,16.30
2022-11-14T09:28:35.529Z,16.60
2022-11-14T09:31:12.575Z,18.33
2022-11-14T09:33:39.731Z,18.60
2022-11-14T09:36:11.326Z,19.30
2022-11-14T09:38:38.843Z,18.87
2022-11-14T09:41:31.029Z,19.43
2022-11-14T09:44:41.035Z,19.40
2022-11-14T09:47:37.026Z,19.37
2022-11-14T09:50:18.728Z,19.37
2022-11-14T09:52:55.128Z,19.43
2022-11-14T09:55:32.228Z,20.17
2022-11-14T09:58:03.859Z,20.17
2022-11-14T10:00:54.501Z,19.90
2022-11-14T10:03:46.383Z,20.73
2022-11-14T10:06:31.188Z,21.77
2022-11-14T10:09:49.568Z,21.87
2022-11-14T10:12:55.711Z,21.93
2022-11-14T10:15:34.056Z,21.17
2022-11-14T10:18:19.638Z,21.23
2022-11-14T10:20:58.604Z,21.53
2022-11-14T10:24:26.556Z,20.23
2022-11-14T10:27:04.027Z,19.10
2022-11-14T10:29:42.144Z,18.87
2022-11-14T10:32:50.862Z,18.73
2022-11-14T10:35:23.900Z,18.23
2022-11-14T10:38:18.428Z,20.97
2022-11-14T10:40:51.078Z,17.90
2022-11-14T10:43:37.114Z,20.00
2022-11-14T10:46:31.213Z,19.13
2022-11-14T10:49:00.487Z,17.77
2022-11-14T10:51:36.672Z,18.90
2022-11-14T10:54:31.306Z,18.97
2022-11-14T10:56:58.926Z,17.83
2022-11-14T10:59:27.727Z,17.73
2022-11-14T11:01:58.024Z,20.97
2022-11-14T11:04:27.534Z,19.13
2022-11-14T11:07:39.042Z,18.90
2022-11-14T11:10:25.785Z,18.57
2022-11-14T11:12:55.099Z,17.97
2022-11-14T11:15:31.604Z,18.70
2022-11-14T11:18:33.497Z,18.93
2022-11-14T11:21:10.405Z,18.90
2022-11-14T11:23:53.207Z,18.40
2022-11-14T11:26:28.606Z,16.97
2022-11-14T11:29:10.918Z,18.20
2022-11-14T11:31:59.000Z,18.97
2022-11-14T11:34:28.837Z,18.70
2022-11-14T11:37:18.705Z,19.43
2022-11-14T11:39:54.165Z,19.87
2022-11-14T11:45:26.149Z,18.33
2022-11-14T11:48:09.941Z,23.97
2022-11-14T11:50:37.108Z,21.47
2022-11-14T11:53:29.479Z,21.10
2022-11-14T11:56:13.795Z,21.27
2022-11-14T11:58:49.911Z,21.47
2022-11-14T12:01:17.442Z,20.27
2022-11-14T12:03:51.007Z,20.63
2022-11-14T12:06:27.336Z,20.73
2022-11-14T12:09:21.922Z,22.07
2022-11-14T12:12:39.616Z,21.40
2022-11-14T12:15:44.589Z,21.77
2022-11-14T12:18:53.684Z,21.23
2022-11-14T12:21:45.353Z,20.93
2022-11-14T12:25:01.364Z,21.13
2022-11-14T12:28:17.225Z,20.83
2022-11-14T12:30:50.998Z,19.93
2022-11-14T12:33:34.563Z,19.17
2022-11-14T12:36:10.104Z,20.83
2022-11-14T12:38:51.292Z,19.73
2022-11-14T12:41:34.938Z,20.90
2022-11-14T12:44:26.849Z,20.37
2022-11-14T12:47:05.680Z,21.87
2022-11-14T12:49:47.595Z,23.40
2022-11-14T12:52:48.775Z,25.63
2022-11-14T12:55:24.544Z,25.47
2022-11-14T12:58:12.752Z,27.07
2022-11-14T13:00:45.816Z,27.63
2022-11-14T13:03:53.543Z,25.23
2022-11-14T13:06:34.603Z,24.03
2022-11-14T13:09:34.145Z,24.50
2022-11-14T13:12:53.128Z,24.40
2022-11-14T13:15:50.904Z,23.23
2022-11-14T13:18:41.637Z,24.37
2022-11-14T13:21:45.677Z,21.70
2022-11-14T13:24:18.870Z,23.13
2022-11-14T13:26:51.998Z,23.37
2022-11-14T13:29:40.591Z,23.53
2022-11-14T13:32:11.821Z,23.70
2022-11-14T13:34:59.768Z,36.37
2022-11-14T13:38:00.442Z,33.27
2022-11-14T13:41:27.268Z,24.37
2022-11-14T13:44:15.312Z,23.40
2022-11-14T13:46:54.846Z,22.50
2022-11-14T13:50:08.111Z,27.97
2022-11-14T13:52:43.581Z,21.30
2022-11-14T13:55:38.830Z,21.30
2022-11-14T13:58:38.997Z,19.93
2022-11-14T14:01:41.499Z,19.57
2022-11-14T14:04:58.703Z,20.57
2022-11-14T14:07:49.380Z,21.60
2022-11-14T14:10:50.367Z,21.10
2022-11-14T14:13:54.013Z,19.80
2022-11-14T14:16:46.848Z,19.50
2022-11-14T14:19:29.588Z,19.67
2022-11-14T14:22:18.855Z,19.07
2022-11-14T14:25:17.320Z,19.03
2022-11-14T14:28:40.482Z,19.33
2022-11-14T14:31:07.300Z,17.90
2022-11-14T14:33:46.725Z,18.57
2022-11-14T14:36:25.756Z,18.10
2022-11-14T14:39:18.417Z,18.63
2022-11-14T14:41:46.212Z,18.43
2022-11-14T14:44:37.890Z,19.00
2022-11-14T14:47:33.248Z,19.20
2022-11-14T14:50:13.299Z,18.50
2022-11-14T14:52:40.220Z,19.93
2022-11-14T14:55:28.140Z,19.30
2022-11-14T14:57:55.197Z,20.33
2022-11-14T15:00:26.634Z,19.10
2022-11-14T15:02:57.358Z,19.73
2022-11-14T15:05:29.712Z,19.07
2022-11-14T15:08:00.741Z,18.90
2022-11-14T15:10:30.371Z,20.03
2022-11-14T15:12:58.365Z,19.23
2022-11-14T15:15:27.628Z,19.97
2022-11-14T15:17:56.189Z,19.13
2022-11-14T15:20:29.511Z,19.60
2022-11-14T15:23:14.382Z,19.60
2022-11-14T15:25:42.749Z,18.70
2022-11-14T15:28:17.411Z,19.13
2022-11-14T15:30:59.129Z,20.77
2022-11-14T15:33:35.203Z,20.83
2022-11-14T15:36:12.350Z,21.73
2022-11-14T15:38:46.422Z,22.97
2022-11-14T15:41:27.915Z,21.73
2022-11-14T15:44:01.813Z,21.30
2022-11-14T15:46:35.816Z,20.87
2022-11-14T15:49:14.476Z,20.27
2022-11-14T15:51:47.679Z,20.17
2022-11-14T15:54:33.476Z,19.83
2022-11-14T15:57:14.812Z,19.87
2022-11-14T15:59:42.192Z,17.70
2022-11-14T16:02:29.879Z,18.60
2022-11-14T16:04:59.130Z,18.77
2022-11-14T16:07:26.377Z,18.20
2022-11-14T16:09:53.393Z,19.83
2022-11-14T16:12:20.311Z,18.87
2022-11-14T16:14:48.422Z,18.73
2022-11-14T16:17:17.968Z,20.37
2022-11-14T16:19:45.042Z,19.27
2022-11-14T16:22:18.322Z,18.97
2022-11-14T16:24:45.326Z,19.53
2022-11-14T16:27:12.201Z,19.97
2022-11-14T16:29:39.141Z,19.97
2022-11-14T16:32:06.053Z,19.90
2022-11-14T16:34:32.960Z,20.73
2022-11-14T16:37:03.299Z,20.63
2022-11-14T16:39:30.324Z,21.07
2022-11-14T16:42:04.716Z,20.40
2022-11-14T16:44:37.239Z,19.07
2022-11-14T16:47:07.226Z,20.50
2022-11-14T16:49:34.118Z,21.60
2022-11-14T16:52:05.539Z,20.90
2022-11-14T16:54:33.503Z,20.97
2022-11-14T16:57:00.435Z,21.63
2022-11-14T16:59:27.385Z,21.10
2022-11-14T17:01:54.385Z,23.23
2022-11-14T17:04:21.477Z,22.10
2022-11-14T17:06:48.769Z,22.00
2022-11-14T17:09:15.881Z,23.87
2022-11-14T17:11:44.648Z,22.93
2022-11-14T17:14:12.207Z,24.63
2022-11-14T17:16:39.260Z,26.27
2022-11-14T17:19:06.526Z,24.47
2022-11-14T17:21:33.526Z,26.03
2022-11-14T17:24:01.655Z,25.20
2022-11-14T17:26:29.503Z,26.60
2022-11-14T17:28:56.899Z,27.43
2022-11-14T17:31:25.041Z,27.30
2022-11-14T17:33:54.218Z,28.30
2022-11-14T17:36:23.098Z,30.23
2022-11-14T17:38:50.357Z,31.60
2022-11-14T17:41:18.184Z,31.03
2022-11-14T17:43:45.471Z,31.87
2022-11-14T17:46:15.932Z,31.60
2022-11-14T17:48:44.854Z,31.17
2022-11-14T17:51:14.923Z,32.27
2022-11-14T17:53:42.601Z,30.60
2022-11-14T17:56:21.662Z,31.33
2022-11-14T17:58:51.740Z,30.70
2022-11-14T18:01:23.247Z,29.83
2022-11-14T18:03:50.587Z,29.37
2022-11-14T18:06:20.449Z,27.73
2022-11-14T18:08:49.188Z,28.53
2022-11-14T18:11:17.883Z,29.93
2022-11-14T18:13:45.106Z,27.73
2022-11-14T18:16:18.367Z,27.10
2022-11-14T18:18:45.696Z,27.27
2022-11-14T18:21:19.347Z,27.63
2022-11-14T18:23:58.605Z,26.27
2022-11-14T18:26:28.762Z,27.53
2022-11-14T18:29:01.162Z,26.30
2022-11-14T18:31:28.958Z,26.20
2022-11-14T18:33:56.603Z,26.50
2022-11-14T18:36:24.187Z,24.57
2022-11-14T18:38:51.416Z,25.83
2022-11-14T18:41:23.800Z,25.40
2022-11-14T18:43:55.223Z,25.37
2022-11-14T18:46:24.265Z,26.70
2022-11-14T18:48:59.791Z,25.87
2022-11-14T18:51:30.930Z,25.67
2022-11-14T18:53:59.324Z,25.43
2022-11-14T18:56:26.705Z,25.40
2022-11-14T18:58:57.392Z,28.67
2022-11-14T19:01:29.245Z,24.10
2022-11-14T19:04:03.870Z,23.30
2022-11-14T19:06:32.605Z,23.13
2022-11-14T19:09:11.156Z,23.57
2022-11-14T19:11:57.373Z,23.23
2022-11-14T19:14:24.511Z,22.43
2022-11-14T19:16:51.376Z,22.33
2022-11-14T19:19:18.304Z,24.53
2022-11-14T19:21:50.270Z,23.73
2022-11-14T19:24:17.843Z,24.40
2022-11-14T19:26:45.075Z,24.63
2022-11-14T19:29:14.997Z,24.80
2022-11-14T19:31:42.921Z,24.33
2022-11-14T19:34:10.255Z,25.73
2022-11-14T19:36:58.862Z,25.87
2022-11-14T19:39:25.784Z,25.17
2022-11-14T19:41:52.720Z,26.53
2022-11-14T19:44:19.820Z,27.10
2022-11-14T19:46:48.105Z,26.07
2022-11-14T19:49:15.770Z,27.83
2022-11-14T19:51:42.792Z,28.70
2022-11-14T19:54:11.077Z,30.77
2022-11-14T19:56:38.391Z,29.57
2022-11-14T19:59:09.657Z,29.93
2022-11-14T20:01:42.125Z,29.17
2022-11-14T20:04:13.315Z,29.40
2022-11-14T20:06:41.664Z,32.63
2022-11-14T20:09:10.841Z,37.00
2022-11-14T20:11:38.169Z,32.03
2022-11-14T20:14:05.800Z,32.07
2022-11-14T20:16:35.807Z,31.17
2022-11-14T20:19:06.019Z,33.30
2022-11-14T20:21:34.910Z,32.33
2022-11-14T20:24:02.042Z,31.03
2022-11-14T20:26:29.014Z,30.60
2022-11-14T20:28:55.995Z,33.97
2022-11-14T20:31:29.832Z,32.87
2022-11-14T20:33:57.187Z,31.07
2022-11-14T20:36:29.453Z,32.10
2022-11-14T20:39:06.275Z,30.30
2022-11-14T20:41:34.010Z,34.03
2022-11-14T20:44:03.432Z,32.80
2022-11-14T20:46:30.415Z,31.43
2022-11-14T20:48:57.428Z,31.10
2022-11-14T20:51:25.795Z,32.27
2022-11-14T20:53:55.009Z,29.60
2022-11-14T20:56:23.411Z,33.57
2022-11-14T20:58:54.656Z,32.83
2022-11-14T21:01:22.005Z,30.60
2022-11-14T21:03:49.155Z,32.23
2022-11-14T21:06:17.263Z,33.07
2022-11-14T21:08:44.385Z,32.70
2022-11-14T21:11:18.272Z,30.97
2022-11-14T21:13:58.540Z,32.87
2022-11-14T21:16:33.072Z,32.43
2022-11-14T21:19:01.242Z,32.13
2022-11-14T21:21:30.443Z,32.20
2022-11-14T21:23:58.053Z,33.00
2022-11-14T21:26:33.564Z,32.70
2022-11-14T21:29:11.109Z,32.00
2022-11-14T21:31:44.579Z,31.73
2022-11-14T21:34:18.028Z,30.43
2022-11-14T21:36:46.755Z,30.63
2022-11-14T21:39:16.434Z,30.87
2022-11-14T21:41:45.715Z,30.20
2022-11-14T21:44:16.648Z,30.00
2022-11-14T21:46:46.392Z,30.03
2022-11-14T21:49:13.311Z,29.47
2022-11-14T21:51:40.227Z,30.53
2022-11-14T21:54:07.409Z,29.33
2022-11-14T21:56:37.173Z,29.00
2022-11-14T21:59:16.049Z,29.10
2022-11-14T22:02:05.362Z,28.07
2022-11-14T22:04:33.414Z,27.17
2022-11-14T22:07:03.739Z,29.10
2022-11-14T22:09:31.371Z,28.90
2022-11-14T22:11:59.280Z,27.40
2022-11-14T22:14:26.304Z,28.20
2022-11-14T22:16:53.202Z,27.43
2022-11-14T22:19:20.232Z,27.23
2022-11-14T22:21:47.158Z,27.20
2022-11-14T22:24:14.042Z,26.90
2022-11-14T22:26:41.427Z,26.97
2022-11-14T22:29:09.180Z,26.77
2022-11-14T22:31:37.895Z,26.33
2022-11-14T22:34:05.342Z,26.93
2022-11-14T22:36:33.308Z,27.77
2022-11-14T22:39:00.209Z,27.33
2022-11-14T22:41:32.733Z,26.57
2022-11-14T22:44:01.337Z,27.00
2022-11-14T22:46:29.913Z,26.00
2022-11-14T22:48:58.286Z,27.23
2022-11-14T22:51:27.641Z,26.93
2022-11-14T22:53:57.499Z,26.70
2022-11-14T22:56:28.561Z,25.57
2022-11-14T22:58:56.299Z,26.10
2022-11-14T23:01:31.136Z,25.20
2022-11-14T23:04:02.010Z,24.60
2022-11-14T23:06:31.295Z,24.63
2022-11-14T23:08:58.829Z,24.93
2022-11-14T23:11:30.222Z,24.13
2022-11-14T23:13:59.408Z,22.87
2022-11-14T23:16:30.115Z,21.83
2022-11-14T23:19:00.240Z,21.70
2022-11-14T23:21:31.602Z,20.20
2022-11-14T23:24:03.476Z,19.30
2022-11-14T23:26:32.563Z,19.20
2022-11-14T23:29:00.104Z,19.00
2022-11-14T23:31:27.251Z,18.90
2022-11-14T23:33:56.044Z,18.37
2022-11-14T23:36:22.981Z,19.13
2022-11-14T23:38:53.598Z,17.20
2022-11-14T23:41:25.396Z,17.43
2022-11-14T23:43:52.495Z,16.60
2022-11-14T23:46:19.500Z,16.27
2022-11-14T23:48:46.412Z,15.37
2022-11-14T23:51:13.901Z,15.77
2022-11-14T23:53:41.659Z,16.30
2022-11-14T23:56:13.387Z,16.53
2022-11-14T23:58:41.598Z,15.90
